Time;durP1;ratioP1;P1;durP2;ratioP2;P2;SDS_P1;SDS_P2;PMS_P1;PMS_P2;Temp;Humidity;BMP_temperature;BMP_pressure;BME280_temperature;BME280_humidity;BME280_pressure;Samples;Min_cycle;Max_cycle;Signal;HPM_P1;HPM_P2
2023/05/02 00:00:37;;;;;;;23.77;10.23;;;;;;;-145.18;100.00;46646.72;4971618;28;20046;-68
2023/05/02 00:03:03;;;;;;;26.97;10.50;;;;;;;-145.18;100.00;46654.53;4953781;28;20050;-68
2023/05/02 00:05:29;;;;;;;28.47;10.13;;;;;;;-145.18;100.00;46648.69;4971108;28;20404;-67
2023/05/02 00:07:55;;;;;;;18.80;8.50;;;;;;;-145.18;100.00;46652.59;4971619;28;20281;-68
2023/05/02 00:10:20;;;;;;;21.30;10.00;;;;;;;-145.18;100.00;46650.63;4971331;28;20265;-68
2023/05/02 00:12:46;;;;;;;23.47;10.03;;;;;;;-145.18;100.00;46646.72;4971302;28;20045;-68
2023/05/02 00:15:11;;;;;;;24.00;10.30;;;;;;;-145.18;100.00;46656.50;4970591;28;20143;-68
2023/05/02 00:17:40;;;;;;;18.20;9.10;;;;;;;-145.18;100.00;46652.59;4971189;28;20043;-68
2023/05/02 00:20:08;;;;;;;20.30;7.67;;;;;;;-145.18;100.00;46650.63;4971316;28;20476;-68
2023/05/02 00:22:33;;;;;;;17.80;8.23;;;;;;;-145.18;100.00;46652.59;4971179;28;20336;-68
2023/05/02 00:24:59;;;;;;;14.23;7.47;;;;;;;-145.18;100.00;46652.59;4971328;28;20839;-68
2023/05/02 00:27:24;;;;;;;19.43;8.40;;;;;;;-145.18;100.00;46652.59;4970920;28;20085;-68
2023/05/02 00:29:51;;;;;;;24.20;9.80;;;;;;;-145.18;100.00;46650.63;4971073;28;20510;-68
2023/05/02 00:32:16;;;;;;;17.03;8.30;;;;;;;-145.18;100.00;46652.59;4970534;28;20073;-68
2023/05/02 00:34:42;;;;;;;17.93;9.67;;;;;;;-145.18;100.00;46650.63;4971107;28;20363;-68
2023/05/02 00:37:07;;;;;;;21.27;10.43;;;;;;;-145.18;100.00;46648.69;4953537;28;20035;-68
2023/05/02 00:39:33;;;;;;;23.83;9.10;;;;;;;-145.18;100.00;46652.59;4971256;28;20023;-68
2023/05/02 00:41:59;;;;;;;24.57;11.30;;;;;;;-145.18;100.00;46658.44;4970737;28;20122;-67
2023/05/02 00:44:24;;;;;;;22.43;10.67;;;;;;;-145.18;100.00;46652.59;4970903;28;20284;-68
2023/05/02 00:46:51;;;;;;;24.17;11.53;;;;;;;-145.18;100.00;46652.59;4971031;28;20388;-68
2023/05/02 00:49:16;;;;;;;27.63;11.27;;;;;;;-145.18;100.00;46650.63;4971158;28;20049;-68
2023/05/02 00:51:42;;;;;;;29.37;13.03;;;;;;;-145.18;100.00;46650.63;4970715;28;20280;-68
2023/05/02 00:54:08;;;;;;;30.03;11.97;;;;;;;-145.18;100.00;46654.53;4970742;28;20039;-68
2023/05/02 00:56:33;;;;;;;27.27;11.87;;;;;;;-145.18;100.00;46658.44;4971467;28;20042;-68
2023/05/02 00:59:00;;;;;;;29.30;12.30;;;;;;;-145.18;100.00;46652.59;4974873;28;20031;-68
2023/05/02 01:01:35;;;;;;;29.53;12.00;;;;;;;-145.18;100.00;46642.81;4974352;28;20516;-67
2023/05/02 01:04:07;;;;;;;30.27;13.40;;;;;;;-145.18;100.00;46652.59;4974782;28;20368;-68
2023/05/02 01:07:04;;;;;;;27.63;12.50;;;;;;;-145.18;100.00;46646.72;4974037;28;20130;-67
2023/05/02 01:09:41;;;;;;;28.27;12.80;;;;;;;-145.18;100.00;46648.69;4973757;28;20288;-68
2023/05/02 01:12:25;;;;;;;26.37;13.07;;;;;;;-145.18;100.00;46648.69;4974063;28;20372;-68
2023/05/02 01:14:54;;;;;;;29.33;12.10;;;;;;;-145.18;100.00;46648.69;4974733;28;20383;-68
2023/05/02 01:17:23;;;;;;;33.53;13.53;;;;;;;-145.18;100.00;46648.69;4974267;28;20256;-68
2023/05/02 01:19:57;;;;;;;28.33;11.87;;;;;;;-145.18;100.00;46654.53;4974696;28;20315;-67
2023/05/02 01:22:27;;;;;;;24.40;10.70;;;;;;;-145.18;100.00;46650.63;4973930;28;20285;-68
2023/05/02 01:25:08;;;;;;;23.93;11.97;;;;;;;-145.18;100.00;46654.53;4956610;28;20264;-68
2023/05/02 01:28:11;;;;;;;25.63;12.27;;;;;;;-145.18;100.00;46646.72;4974202;28;20280;-68
2023/05/02 01:30:40;;;;;;;20.57;9.63;;;;;;;-145.18;100.00;46648.69;4974381;28;20261;-68
2023/05/02 01:33:10;;;;;;;22.03;11.40;;;;;;;-145.18;100.00;46650.63;4973726;28;20304;-68
2023/05/02 01:35:37;;;;;;;25.27;11.73;;;;;;;-145.18;100.00;46650.63;4974261;28;20677;-68
2023/05/02 01:38:04;;;;;;;20.97;9.30;;;;;;;-145.18;100.00;46652.59;4974006;28;20624;-68
2023/05/02 01:40:32;;;;;;;20.83;7.57;;;;;;;-145.18;100.00;46648.69;4974355;28;20269;-68
2023/05/02 01:42:59;;;;;;;20.10;8.40;;;;;;;-145.18;100.00;46650.63;4973687;28;20415;-68
2023/05/02 01:45:28;;;;;;;15.37;6.80;;;;;;;-145.18;100.00;46652.59;4973668;28;20370;-68
2023/05/02 01:47:53;;;;;;;6.00;4.20;;;;;;;-145.18;100.00;46652.59;4973979;28;20276;-68
2023/05/02 01:50:22;;;;;;;11.90;5.70;;;;;;;-145.18;100.00;46658.44;4973800;28;20265;-68
2023/05/02 01:52:51;;;;;;;12.30;5.20;;;;;;;-145.18;100.00;46646.72;4973658;28;20027;-68
2023/05/02 01:55:17;;;;;;;12.20;6.23;;;;;;;-145.18;100.00;46648.69;4973311;28;20296;-68
2023/05/02 01:57:44;;;;;;;18.40;7.37;;;;;;;-145.18;100.00;46650.63;4973551;28;20633;-68
2023/05/02 02:00:11;;;;;;;18.30;6.80;;;;;;;-145.18;100.00;46652.59;4973613;28;20296;-69
2023/05/02 02:02:58;;;;;;;15.70;6.43;;;;;;;-145.18;100.00;46648.69;5107554;23;20930;-69
2023/05/02 02:05:24;;;;;;;17.47;6.23;;;;;;;-145.18;100.00;46656.50;4946532;29;20312;-69
2023/05/02 02:07:50;;;;;;;15.67;5.97;;;;;;;-145.18;100.00;46650.63;4934485;29;20265;-69
2023/05/02 02:10:15;;;;;;;13.30;4.33;;;;;;;-145.18;100.00;46648.69;4947200;29;20285;-69
2023/05/02 02:12:44;;;;;;;19.33;5.03;;;;;;;-145.18;100.00;46648.69;4954336;28;20035;-69
2023/05/02 02:15:18;;;;;;;14.17;6.37;;;;;;;-145.18;100.00;46654.53;4952984;29;20563;-68
2023/05/02 02:17:59;;;;;;;17.27;6.03;;;;;;;-145.18;100.00;46650.63;4953212;28;20273;-68
2023/05/02 02:20:28;;;;;;;16.40;6.47;;;;;;;-145.18;100.00;46652.59;4954504;28;20262;-68
2023/05/02 02:22:56;;;;;;;18.07;7.47;;;;;;;-145.18;100.00;46654.53;4953771;28;20257;-68
2023/05/02 02:25:23;;;;;;;19.43;9.33;;;;;;;-145.18;100.00;46656.50;4954320;28;20277;-68
2023/05/02 02:27:49;;;;;;;25.30;9.87;;;;;;;-145.18;100.00;46654.53;4953674;28;20782;-68
2023/05/02 02:30:15;;;;;;;25.70;11.53;;;;;;;-145.18;100.00;46650.63;4954154;28;20345;-68
2023/05/02 02:32:40;;;;;;;19.87;11.17;;;;;;;-145.18;100.00;46656.50;4950506;28;20372;-68
2023/05/02 02:35:07;;;;;;;24.33;10.77;;;;;;;-145.18;100.00;46656.50;4934958;29;20043;-68
2023/05/02 02:37:38;;;;;;;27.73;11.73;;;;;;;-145.18;100.00;46652.59;4937086;29;20055;-68
2023/05/02 02:40:24;;;;;;;23.17;10.67;;;;;;;-145.18;100.00;46658.44;4954161;28;20622;-68
2023/05/02 02:43:07;;;;;;;28.07;10.93;;;;;;;-145.18;100.00;46656.50;4953780;28;20270;-68
2023/05/02 02:45:39;;;;;;;19.17;9.40;;;;;;;-145.18;100.00;46658.44;4954072;28;20276;-68
2023/05/02 02:48:16;;;;;;;18.13;9.07;;;;;;;-145.18;100.00;46654.53;4949487;28;20368;-68
2023/05/02 02:50:53;;;;;;;17.90;9.47;;;;;;;-145.18;100.00;46660.41;4934306;29;20269;-68
2023/05/02 02:53:25;;;;;;;22.87;10.57;;;;;;;-145.18;100.00;46652.59;4934545;29;20345;-68
2023/05/02 02:56:01;;;;;;;23.43;9.30;;;;;;;-145.18;100.00;46660.41;4934318;29;20410;-68
2023/05/02 02:58:48;;;;;;;26.27;10.63;;;;;;;-145.18;100.00;46664.31;4935404;29;20313;-68
2023/05/02 03:01:18;;;;;;;18.50;7.20;;;;;;;-145.18;100.00;46660.41;4934509;29;20850;-68
2023/05/02 03:03:46;;;;;;;12.67;5.43;;;;;;;-145.18;100.00;46662.34;4933973;29;20306;-68
2023/05/02 03:06:11;;;;;;;16.23;6.03;;;;;;;-145.18;100.00;46670.16;4934590;29;20279;-68
2023/05/02 03:08:42;;;;;;;18.03;4.90;;;;;;;-145.18;100.00;46668.22;4933888;29;20675;-68
2023/05/02 03:11:08;;;;;;;11.43;4.33;;;;;;;-145.18;100.00;46668.22;4934319;29;20039;-68
2023/05/02 03:13:34;;;;;;;10.37;4.70;;;;;;;-145.18;100.00;46670.16;4935074;29;20288;-68
2023/05/02 03:16:12;;;;;;;7.83;4.23;;;;;;;-145.18;100.00;46668.22;4934271;29;20410;-68
2023/05/02 03:18:38;;;;;;;10.37;4.00;;;;;;;-145.18;100.00;46674.06;4949858;29;20328;-68
2023/05/02 03:21:03;;;;;;;7.93;4.63;;;;;;;-145.18;100.00;46677.97;4952536;28;20607;-68
2023/05/02 03:23:29;;;;;;;10.10;5.33;;;;;;;-145.18;100.00;46689.69;4953039;28;20297;-68
2023/05/02 03:25:54;;;;;;;14.37;5.63;;;;;;;-145.18;100.00;46681.88;4953158;28;20031;-68
2023/05/02 03:28:20;;;;;;;10.97;6.13;;;;;;;-145.18;100.00;46697.50;4951422;28;20043;-68
2023/05/02 03:30:45;;;;;;;12.20;4.93;;;;;;;-145.18;100.00;46699.47;4952979;29;20086;-68
2023/05/02 03:33:10;;;;;;;6.43;4.37;;;;;;;-145.18;100.00;46703.38;4952933;28;20031;-68
2023/05/02 03:35:36;;;;;;;5.07;3.27;;;;;;;-145.18;100.00;46707.28;4934314;28;20066;-68
2023/05/02 03:38:01;;;;;;;8.37;4.77;;;;;;;-145.18;100.00;46709.22;4933860;29;20094;-68
2023/05/02 03:40:26;;;;;;;7.50;4.03;;;;;;;-145.18;100.00;46705.31;4933881;29;20118;-68
2023/05/02 03:42:52;;;;;;;7.47;3.53;;;;;;;-145.18;100.00;46707.28;4934367;28;20035;-68
2023/05/02 03:45:17;;;;;;;8.93;3.37;;;;;;;-145.18;100.00;46703.38;4971903;28;20042;-68
2023/05/02 03:47:43;;;;;;;6.53;3.13;;;;;;;-145.18;100.00;46707.28;4971729;28;20062;-68
2023/05/02 03:50:08;;;;;;;6.30;2.70;;;;;;;-145.18;100.00;46705.31;4972134;28;20043;-68
2023/05/02 03:52:34;;;;;;;7.00;2.17;;;;;;;-145.18;100.00;46707.28;4970225;28;20122;-68
2023/05/02 03:55:00;;;;;;;5.57;2.70;;;;;;;-145.18;100.00;46707.28;4956023;28;20476;-68
2023/05/02 03:57:29;;;;;;;3.70;2.20;;;;;;;-145.18;100.00;46703.38;4946986;28;20571;-68
2023/05/02 03:59:54;;;;;;;7.10;1.57;;;;;;;-145.18;100.00;46703.38;4951517;28;20278;-68
2023/05/02 04:02:20;;;;;;;5.63;1.50;;;;;;;-145.18;100.00;46699.47;4951309;28;20285;-68
2023/05/02 04:04:45;;;;;;;7.33;2.10;;;;;;;-145.18;100.00;46695.56;4951679;29;20043;-68
2023/05/02 04:07:16;;;;;;;7.67;2.27;;;;;;;-145.18;100.00;46683.84;4948938;29;20443;-68
2023/05/02 04:09:42;;;;;;;12.17;2.53;;;;;;;-145.18;100.00;46679.94;4948582;28;20094;-68
2023/05/02 04:12:08;;;;;;;10.30;2.07;;;;;;;-145.18;100.00;46681.88;4951510;28;20313;-68
2023/05/02 04:14:33;;;;;;;13.20;2.30;;;;;;;-145.18;100.00;46683.84;4951982;28;20050;-68
2023/05/02 04:16:58;;;;;;;9.40;1.90;;;;;;;-145.18;100.00;46679.94;4951614;29;20055;-68
2023/05/02 04:19:24;;;;;;;14.07;2.70;;;;;;;-145.18;100.00;46685.78;4951720;28;20046;-67
2023/05/02 04:21:49;;;;;;;10.50;1.60;;;;;;;-145.18;100.00;46683.84;4951006;28;20051;-67
2023/05/02 04:24:14;;;;;;;9.70;1.90;;;;;;;-145.18;100.00;46697.50;4950035;28;20567;-67
2023/05/02 04:26:40;;;;;;;4.40;1.50;;;;;;;-145.18;100.00;46689.69;4949940;29;20578;-67
2023/05/02 04:29:06;;;;;;;9.67;2.13;;;;;;;-145.18;100.00;46703.38;4951732;29;20038;-68
2023/05/02 04:31:31;;;;;;;7.73;2.10;;;;;;;-145.18;100.00;46699.47;4951437;28;20034;-68
2023/05/02 04:33:57;;;;;;;6.30;1.97;;;;;;;-145.18;100.00;46701.41;4951031;28;20408;-68
2023/05/02 04:36:23;;;;;;;5.43;1.77;;;;;;;-145.18;100.00;46697.50;4951146;29;20035;-68
2023/05/02 04:38:48;;;;;;;9.33;2.40;;;;;;;-145.18;100.00;46701.41;4950693;28;20042;-68
2023/05/02 04:41:14;;;;;;;6.27;1.60;;;;;;;-145.18;100.00;46705.31;4951660;29;20270;-68
2023/05/02 04:43:40;;;;;;;11.57;2.20;;;;;;;-145.18;100.00;46701.41;4951312;29;20778;-68
2023/05/02 04:46:05;;;;;;;9.73;2.13;;;;;;;-145.18;100.00;46705.31;4952114;28;20106;-68
2023/05/02 04:48:31;;;;;;;6.90;2.03;;;;;;;-145.18;100.00;46705.31;4951587;28;20118;-68
2023/05/02 04:50:56;;;;;;;11.07;2.30;;;;;;;-145.18;100.00;46703.38;4951748;28;20492;-68
2023/05/02 04:53:22;;;;;;;3.53;2.33;;;;;;;-145.18;100.00;46705.31;4950998;28;20031;-68
2023/05/02 04:55:47;;;;;;;8.13;2.00;;;;;;;-145.18;100.00;46703.38;4945856;28;20043;-68
2023/05/02 04:58:13;;;;;;;8.17;1.83;;;;;;;-145.18;100.00;46701.41;4943738;29;20097;-68
2023/05/02 05:00:38;;;;;;;7.67;1.60;;;;;;;-145.18;100.00;46701.41;4938979;28;20027;-68
2023/05/02 05:03:05;;;;;;;8.47;1.77;;;;;;;-145.18;100.00;46701.41;4950445;28;20131;-68
2023/05/02 05:05:31;;;;;;;9.33;1.97;;;;;;;-145.18;100.00;46701.41;4942571;28;20031;-68
2023/05/02 05:07:56;;;;;;;5.07;1.57;;;;;;;-145.18;100.00;46703.38;4950798;28;20332;-68
2023/05/02 05:10:21;;;;;;;6.33;2.13;;;;;;;-145.18;100.00;46697.50;4949870;29;20031;-68
2023/05/02 05:12:48;;;;;;;4.10;1.30;;;;;;;-145.18;100.00;46695.56;4932861;28;20098;-68
2023/05/02 05:15:14;;;;;;;5.43;1.50;;;;;;;-145.18;100.00;46689.69;4941346;28;20035;-68
2023/05/02 05:17:39;;;;;;;5.30;1.57;;;;;;;-145.18;100.00;46670.16;4943829;28;20287;-68
2023/05/02 05:20:05;;;;;;;5.87;1.70;;;;;;;-145.18;100.00;46666.25;4949270;28;20391;-68
2023/05/02 05:22:36;;;;;;;6.83;1.40;;;;;;;-145.18;100.00;46646.72;4947757;28;20034;-68
2023/05/02 05:25:02;;;;;;;10.07;1.73;;;;;;;-145.18;100.00;46635.00;4953032;28;20766;-68
2023/05/02 05:27:27;;;;;;;9.53;1.83;;;;;;;-145.18;100.00;46588.13;4946276;28;20321;-68
2023/05/02 05:29:53;;;;;;;6.80;1.20;;;;;;;-145.18;100.00;46572.50;4945920;28;20424;-68
2023/05/02 05:32:18;;;;;;;9.87;1.60;;;;;;;-145.18;100.00;46568.59;4942455;28;20046;-68
2023/05/02 05:34:43;;;;;;;4.87;1.50;;;;;;;-145.18;100.00;46568.59;4942683;28;20031;-68
2023/05/02 05:37:09;;;;;;;3.50;1.33;;;;;;;-145.18;100.00;46566.63;4945899;29;20086;-68
2023/05/02 05:39:34;;;;;;;7.43;1.57;;;;;;;-145.18;100.00;46568.59;4938353;28;20035;-68
2023/05/02 05:42:00;;;;;;;7.80;2.17;;;;;;;-145.18;100.00;46568.59;4945988;28;20028;-68
2023/05/02 05:44:25;;;;;;;9.80;1.60;;;;;;;-145.18;100.00;46568.59;4940127;29;20078;-67
2023/05/02 05:46:51;;;;;;;5.93;1.70;;;;;;;-145.18;100.00;46570.53;4944817;29;20039;-68
2023/05/02 05:49:16;;;;;;;7.83;1.73;;;;;;;-145.18;100.00;46576.41;4953681;29;20054;-68
2023/05/02 05:51:41;;;;;;;7.67;1.70;;;;;;;-145.18;100.00;46572.50;4947614;28;20035;-68
2023/05/02 05:54:07;;;;;;;5.47;1.30;;;;;;;-145.18;100.00;46576.41;4940217;29;20086;-68
2023/05/02 05:56:33;;;;;;;6.33;1.60;;;;;;;-145.18;100.00;46578.34;4943340;29;20043;-68
2023/05/02 05:58:58;;;;;;;6.70;1.87;;;;;;;-145.18;100.00;46586.16;4948159;29;20281;-68
2023/05/02 06:01:24;;;;;;;11.43;2.10;;;;;;;-145.18;100.00;46590.06;4942655;28;20043;-68
2023/05/02 06:03:49;;;;;;;9.07;1.47;;;;;;;-145.18;100.00;46584.22;4942604;29;20098;-68
2023/05/02 06:06:14;;;;;;;6.37;1.87;;;;;;;-145.18;100.00;46590.06;4938882;29;20035;-68
2023/05/02 06:08:40;;;;;;;9.57;1.60;;;;;;;-145.18;100.00;46590.06;4942232;29;20337;-68
2023/05/02 06:11:10;;;;;;;9.67;1.87;;;;;;;-145.18;100.00;46599.84;4944299;28;20035;-67
2023/05/02 06:13:36;;;;;;;6.10;1.63;;;;;;;-145.18;100.00;46590.06;4944985;29;20122;-68
2023/05/02 06:16:01;;;;;;;6.07;1.73;;;;;;;-145.18;100.00;46595.94;4944614;28;20376;-68
2023/05/02 06:18:27;;;;;;;12.00;2.37;;;;;;;-145.18;100.00;46593.97;4946565;29;20861;-68
2023/05/02 06:20:53;;;;;;;5.13;1.43;;;;;;;-145.18;100.00;46599.84;4946374;28;20460;-68
2023/05/02 06:23:18;;;;;;;5.67;1.70;;;;;;;-145.18;100.00;46607.66;4941536;29;20042;-68
2023/05/02 06:25:44;;;;;;;6.03;1.90;;;;;;;-145.18;100.00;46617.41;4944355;29;20038;-68
2023/05/02 06:28:09;;;;;;;7.57;2.33;;;;;;;-145.18;100.00;46617.41;4944725;29;20042;-68
2023/05/02 06:30:35;;;;;;;7.17;1.83;;;;;;;-145.18;100.00;46638.91;4941981;29;20023;-68
2023/05/02 06:33:03;;;;;;;9.53;1.93;;;;;;;-145.18;100.00;46656.50;4944398;29;20050;-68
2023/05/02 06:35:28;;;;;;;4.90;1.30;;;;;;;-145.18;100.00;46654.53;4949765;28;20587;-68
2023/05/02 06:37:54;;;;;;;6.97;1.57;;;;;;;-145.18;100.00;46674.06;4947503;29;20274;-68
2023/05/02 06:40:19;;;;;;;6.63;1.90;;;;;;;-145.18;100.00;46707.28;4943957;28;20027;-68
2023/05/02 06:42:44;;;;;;;5.10;1.50;;;;;;;-145.18;100.00;46740.47;4950454;29;20082;-68
2023/05/02 06:45:10;;;;;;;7.03;1.77;;;;;;;-145.18;100.00;46722.91;4952477;29;20060;-68
2023/05/02 06:47:35;;;;;;;7.57;2.00;;;;;;;-145.18;100.00;46738.53;4944106;29;20516;-68
2023/05/02 06:50:00;;;;;;;5.50;1.53;;;;;;;-145.18;100.00;46758.06;4944085;29;20090;-68
2023/05/02 06:52:26;;;;;;;7.27;1.40;;;;;;;-145.18;100.00;46781.50;4939382;29;20042;-68
2023/05/02 06:54:51;;;;;;;9.53;1.13;;;;;;;-145.18;100.00;46789.31;4942229;28;20063;-68
2023/05/02 06:57:17;;;;;;;7.03;1.47;;;;;;;-145.18;100.00;46787.38;4938829;28;20131;-68
2023/05/02 06:59:42;;;;;;;7.57;1.73;;;;;;;-145.18;100.00;46847.91;4943974;28;20047;-68
2023/05/02 07:02:07;;;;;;;11.40;1.10;;;;;;;-145.18;100.00;46879.19;4943334;28;20079;-68
2023/05/02 07:04:33;;;;;;;2.30;1.17;;;;;;;-145.18;100.00;47277.69;4942113;29;20097;-68
2023/05/02 07:06:58;;;;;;;3.07;1.50;;;;;;;-145.18;100.00;47111.66;4941194;29;20539;-68
2023/05/02 07:09:24;;;;;;;2.60;0.80;;;;;;;-145.18;100.00;47392.97;4935070;29;20445;-68
2023/05/02 07:11:49;;;;;;;7.93;1.73;;;;;;;-145.18;100.00;47494.56;4937060;29;20508;-68
2023/05/02 07:14:14;;;;;;;8.30;1.63;;;;;;;-145.18;100.00;47437.91;4947242;29;20597;-68
2023/05/02 07:16:40;;;;;;;10.10;1.80;;;;;;;-145.18;100.00;47547.31;4948489;28;20036;-68
2023/05/02 07:19:05;;;;;;;5.87;1.60;;;;;;;-145.18;100.00;47512.16;4944336;29;20504;-68
2023/05/02 07:21:31;;;;;;;2.53;1.10;;;;;;;-145.18;100.00;47521.91;4948566;29;20496;-68
2023/05/02 07:23:56;;;;;;;8.20;1.33;;;;;;;-145.18;100.00;47484.78;4944791;29;20038;-68
2023/05/02 07:26:22;;;;;;;7.10;1.80;;;;;;;-145.18;100.00;47471.13;4944314;29;20039;-68
2023/05/02 07:28:48;;;;;;;8.47;1.40;;;;;;;-145.18;100.00;47435.94;4942575;28;20035;-68
2023/05/02 07:31:13;;;;;;;6.83;1.37;;;;;;;-145.18;100.00;47428.13;4942682;29;20035;-68
2023/05/02 07:33:38;;;;;;;5.10;1.37;;;;;;;-145.18;100.00;47434.00;4943503;29;20035;-68
2023/05/02 07:36:04;;;;;;;3.80;1.20;;;;;;;-145.18;100.00;47416.41;4952320;28;20057;-68
2023/05/02 07:38:29;;;;;;;4.63;1.30;;;;;;;-145.18;100.00;47426.19;4952202;28;20031;-68
2023/05/02 07:40:58;;;;;;;5.33;1.20;;;;;;;-145.18;100.00;47449.63;4945352;28;20134;-68
2023/05/02 07:43:24;;;;;;;6.93;1.30;;;;;;;-145.18;100.00;47430.09;4945129;28;20058;-68
2023/05/02 07:45:49;;;;;;;4.93;1.20;;;;;;;-145.18;100.00;47437.91;4938369;29;20039;-68
2023/05/02 07:48:15;;;;;;;11.10;1.47;;;;;;;-145.18;100.00;47432.03;4942553;28;20543;-68
2023/05/02 07:50:40;;;;;;;2.50;0.77;;;;;;;-145.18;100.00;47447.66;4942910;29;20032;-68
2023/05/02 07:53:06;;;;;;;5.57;1.20;;;;;;;-145.18;100.00;47424.22;4936402;29;20701;-68
2023/05/02 07:55:32;;;;;;;3.27;1.00;;;;;;;-145.18;100.00;47408.59;4937428;29;20075;-68
2023/05/02 07:57:57;;;;;;;5.77;1.60;;;;;;;-145.18;100.00;47426.19;4936178;28;20179;-68
2023/05/02 08:00:23;;;;;;;5.50;1.30;;;;;;;-145.18;100.00;47414.47;4950317;28;20054;-68
2023/05/02 08:02:48;;;;;;;6.13;2.17;;;;;;;-145.18;100.00;47402.72;4942851;28;20546;-68
2023/05/02 08:05:13;;;;;;;4.60;1.10;;;;;;;-145.18;100.00;47418.38;4944367;28;20039;-68
2023/05/02 08:07:39;;;;;;;10.17;1.30;;;;;;;-145.18;100.00;47420.31;4942904;28;20038;-68
2023/05/02 08:10:05;;;;;;;7.27;1.40;;;;;;;-145.18;100.00;47441.81;4942207;28;20505;-68
2023/05/02 08:12:31;;;;;;;5.63;1.53;;;;;;;-145.18;100.00;47424.22;4936542;28;20035;-68
2023/05/02 08:14:56;;;;;;;4.23;1.40;;;;;;;-145.18;100.00;47414.47;4944607;29;20493;-68
2023/05/02 08:17:22;;;;;;;7.00;1.70;;;;;;;-145.18;100.00;47484.78;4943596;28;20054;-68
2023/05/02 08:19:47;;;;;;;5.13;1.60;;;;;;;-145.18;100.00;47508.22;4948559;29;20467;-67
2023/05/02 08:22:12;;;;;;;6.53;1.70;;;;;;;-145.18;100.00;47486.75;4943063;29;20039;-68
2023/05/02 08:24:38;;;;;;;5.77;1.30;;;;;;;-145.18;100.00;47478.94;4945122;29;20040;-68
2023/05/02 08:27:03;;;;;;;7.80;1.60;;;;;;;-145.18;100.00;47500.41;4939028;28;20382;-68
2023/05/02 08:29:30;;;;;;;8.90;1.30;;;;;;;-145.18;100.00;47463.31;4943049;29;20453;-68
2023/05/02 08:31:55;;;;;;;6.23;1.80;;;;;;;-145.18;100.00;47508.22;4951270;28;20031;-68
2023/05/02 08:34:21;;;;;;;8.17;1.73;;;;;;;-145.18;100.00;47476.97;4951066;28;20300;-68
2023/05/02 08:36:46;;;;;;;5.43;1.40;;;;;;;-145.18;100.00;47480.88;4951757;28;20086;-68
2023/05/02 08:39:12;;;;;;;5.77;1.20;;;;;;;-145.18;100.00;47453.53;4951147;28;20121;-68
2023/05/02 08:41:37;;;;;;;3.73;1.27;;;;;;;-145.18;100.00;47439.84;4949659;28;20089;-68
2023/05/02 08:44:06;;;;;;;8.87;1.50;;;;;;;-145.18;100.00;47441.81;4948395;29;20047;-68
2023/05/02 08:46:35;;;;;;;6.43;1.20;;;;;;;-145.18;100.00;47453.53;4951120;28;20061;-68
2023/05/02 08:49:01;;;;;;;6.03;1.20;;;;;;;-145.18;100.00;47432.03;4950788;28;20328;-68
2023/05/02 08:51:29;;;;;;;4.93;1.23;;;;;;;-145.18;100.00;47428.13;4943303;28;20544;-68
2023/05/02 08:53:56;;;;;;;2.73;1.40;;;;;;;-145.18;100.00;47406.63;4947653;28;20285;-68
2023/05/02 08:56:21;;;;;;;8.23;1.20;;;;;;;-145.18;100.00;47426.19;4949624;28;20300;-68
2023/05/02 08:58:46;;;;;;;6.90;1.17;;;;;;;-145.18;100.00;47430.09;4944979;29;20292;-68
2023/05/02 09:01:15;;;;;;;6.57;1.40;;;;;;;-145.18;100.00;47394.91;4944676;29;20066;-68
2023/05/02 09:03:43;;;;;;;8.03;1.00;;;;;;;-145.18;100.00;47418.38;4950376;28;20201;-68
2023/05/02 09:06:16;;;;;;;5.20;1.37;;;;;;;-145.18;100.00;47439.84;4949252;28;20368;-68
2023/05/02 09:08:43;;;;;;;7.07;1.57;;;;;;;-145.18;100.00;47398.81;4938667;28;20289;-68
2023/05/02 09:11:09;;;;;;;4.73;1.57;;;;;;;-145.18;100.00;47385.16;4943226;28;20293;-68
2023/05/02 09:13:40;;;;;;;5.87;1.47;;;;;;;-145.18;100.00;47375.38;4936190;29;20032;-68
2023/05/02 09:16:06;;;;;;;5.47;1.30;;;;;;;-145.18;100.00;47357.78;4941677;29;20039;-68
2023/05/02 09:18:36;;;;;;;5.13;1.03;;;;;;;-145.18;100.00;47336.31;4944024;28;20102;-68
2023/05/02 09:21:07;;;;;;;3.20;1.00;;;;;;;-145.18;100.00;47369.53;4942940;28;20038;-68
2023/05/02 09:23:37;;;;;;;7.03;1.60;;;;;;;-145.18;100.00;47389.06;4947682;29;20126;-68
2023/05/02 09:26:32;;;;;;;4.23;1.40;;;;;;;-145.18;100.00;47355.84;4943402;28;20523;-68
2023/05/02 09:29:03;;;;;;;11.20;1.30;;;;;;;-145.18;100.00;47353.88;4952085;28;20038;-68
2023/05/02 09:31:36;;;;;;;7.20;1.27;;;;;;;-145.18;100.00;47332.41;4942416;28;20135;-68
2023/05/02 09:34:17;;;;;;;5.20;0.97;;;;;;;-145.18;100.00;47328.50;4944235;29;20090;-68
2023/05/02 09:36:44;;;;;;;4.00;1.00;;;;;;;-145.18;100.00;47359.75;4954184;28;20041;-68
2023/05/02 09:39:12;;;;;;;4.93;1.03;;;;;;;-145.18;100.00;47330.44;4951185;28;20039;-68
2023/05/02 09:41:42;;;;;;;4.63;1.13;;;;;;;-145.18;100.00;47355.84;4953871;28;20060;-68
2023/05/02 09:44:13;;;;;;;5.23;1.10;;;;;;;-145.18;100.00;47334.34;4953176;28;20035;-68
2023/05/02 09:46:39;;;;;;;10.57;1.73;;;;;;;-145.18;100.00;47349.97;4950423;29;20059;-68
2023/05/02 09:49:05;;;;;;;2.67;1.10;;;;;;;-145.18;100.00;47334.34;4947407;29;20040;-68
2023/05/02 09:51:30;;;;;;;6.93;1.40;;;;;;;-145.18;100.00;47336.31;4945334;29;20039;-68
2023/05/02 09:53:56;;;;;;;9.87;1.30;;;;;;;-145.18;100.00;47340.22;4946200;29;20039;-68
2023/05/02 09:56:21;;;;;;;4.33;1.20;;;;;;;-145.18;100.00;47344.13;4948128;28;20259;-68
2023/05/02 09:58:47;;;;;;;3.83;1.37;;;;;;;-145.18;100.00;47365.63;4953523;28;20039;-68
2023/05/02 10:01:16;;;;;;;7.70;1.40;;;;;;;-145.18;100.00;47377.34;4947954;28;20389;-68
2023/05/02 10:03:46;;;;;;;4.73;1.27;;;;;;;-145.18;100.00;47375.38;4953251;28;20052;-68
2023/05/02 10:06:12;;;;;;;2.73;1.23;;;;;;;-145.18;100.00;47355.84;4953035;28;20047;-68
2023/05/02 10:08:38;;;;;;;4.03;1.33;;;;;;;-145.18;100.00;47334.34;4943880;29;20031;-68
2023/05/02 10:11:06;;;;;;;3.63;1.20;;;;;;;-145.18;100.00;47379.28;4950675;28;20035;-67
2023/05/02 10:13:34;;;;;;;4.93;1.40;;;;;;;-145.18;100.00;47373.44;4950536;29;20047;-67
2023/05/02 10:16:02;;;;;;;2.60;1.13;;;;;;;-145.18;100.00;47348.03;4942521;28;20047;-68
2023/05/02 10:19:06;;;;;;;2.60;1.13;;;;;;;-145.18;100.00;47355.84;4945902;29;20477;-68
2023/05/02 10:21:33;;;;;;;4.87;1.20;;;;;;;-145.18;100.00;47367.56;4891556;29;20068;-67
2023/05/02 10:24:02;;;;;;;2.73;1.30;;;;;;;-145.18;100.00;47353.88;4932632;28;20055;-67
2023/05/02 10:26:28;;;;;;;3.93;1.23;;;;;;;-145.18;100.00;47359.75;4948882;28;20040;-68
2023/05/02 10:28:55;;;;;;;5.53;1.20;;;;;;;-145.18;100.00;47383.19;4945797;28;20553;-67
2023/05/02 10:31:21;;;;;;;9.67;1.60;;;;;;;-145.18;100.00;47361.72;4951573;28;20062;-67
2023/05/02 10:33:50;;;;;;;9.10;1.60;;;;;;;-145.18;100.00;47307.00;4947364;28;20074;-67
2023/05/02 10:36:20;;;;;;;6.93;1.40;;;;;;;-145.18;100.00;47289.41;4936827;29;20040;-68
2023/05/02 10:38:47;;;;;;;2.27;1.17;;;;;;;-145.18;100.00;47336.31;4943127;28;20097;-68
2023/05/02 10:41:16;;;;;;;3.30;1.07;;;;;;;-145.18;100.00;47310.91;4943119;29;20032;-68
2023/05/02 10:43:46;;;;;;;6.17;1.70;;;;;;;-145.18;100.00;47293.31;4950495;28;20031;-68
2023/05/02 10:46:34;;;;;;;4.90;1.50;;;;;;;-145.18;100.00;47330.44;4952353;28;20097;-68
2023/05/02 10:49:00;;;;;;;3.40;1.37;;;;;;;-145.18;100.00;47338.25;4952941;28;20492;-68
2023/05/02 10:51:28;;;;;;;4.17;1.17;;;;;;;-145.18;100.00;47371.47;4951633;28;20055;-67
2023/05/02 10:53:56;;;;;;;6.27;1.60;;;;;;;-145.18;100.00;47371.47;4945916;29;20473;-68
2023/05/02 10:56:21;;;;;;;5.73;1.90;;;;;;;-145.18;100.00;47340.22;4953556;28;20619;-68
2023/05/02 10:58:49;;;;;;;4.83;1.50;;;;;;;-145.18;100.00;47299.19;4949500;29;20110;-68
2023/05/02 11:01:36;;;;;;;9.10;1.53;;;;;;;-145.18;100.00;47264.03;4952613;28;20035;-69
2023/05/02 11:04:06;;;;;;;4.70;1.60;;;;;;;-145.18;100.00;47332.41;4938281;29;20177;-68
2023/05/02 11:06:55;;;;;;;3.67;1.40;;;;;;;-145.18;100.00;47330.44;4941303;28;20039;-68